Impacts METAR Board
IDs:

KPIT - Pittsburgh Intl, PA, US

Updated at: 1000 UTC 15 Dec 2018
Potential Impact None Slight Moderate High
Time 14/22Z 14/23Z 15/00Z 15/01Z 15/02Z 15/03Z 15/04Z 15/05Z 15/06Z 15/07Z 15/08Z 15/09Z 15/10Z
Temp48 48 47 46 46 45 46 46 46 45 45 45 45
Dewpt37 41 45 46 46 45 46 46 46 45 45 45 45
Altim30.18 30.17 30.17 30.17 30.15 30.14 30.13 30.12 30.11 30.07 30.09 30.08 30.06
VIS10 10 10 6 6 6 6 4 5 4 4 4 3
CIG50 50 80 4 4 37 36 35 6 24 26 5 16
CoverOVCOVCOVCOVCOVCOVCOVCOVCOVCOVCOVCOVCOVC
FltCatVFRVFRVFRLIFRLIFRVFRVFRMVFRIFRMVFRMVFRIFRMVFR
WX------BRBRBRBR-RA BR-RA BR-RA BR-RA BRBR-RA BR
WDir1101501406070906050603060060
WSpd3 4 3 3 3 4 3 5 4 9 4 0 3
WGst-- -- -- -- -- -- -- -- -- -- -- -- --
Raw hourly METARs
KPIT 142151Z 11003KT 10SM FEW024 BKN050 OVC150 09/03 A3018 RMK AO2 SLP234 T00890028
KPIT 142251Z 15004KT 10SM BKN050 OVC090 09/05 A3017 RMK AO2 SLP233 T00890050
KPIT 142351Z 14003KT 10SM SCT050 BKN080 OVC150 08/07 A3017 RMK AO2 SLP233 T00830072 10106 20083 56004
KPIT 150104Z 06003KT 6SM BR BKN004 BKN030 OVC080 08/08 A3017 RMK AO2 T00780078
KPIT 150151Z 07003KT 6SM BR OVC004 08/08 A3015 RMK AO2 SLP224 T00780078
KPIT 150251Z 09004KT 6SM BR FEW004 OVC037 07/07 A3014 RMK AO2 SLP219 T00720072 58012
KPIT 150351Z 06003KT 6SM BR OVC036 08/08 A3013 RMK AO2 SLP215 T00780078
KPIT 150451Z 05005KT 4SM -RA BR BKN035 BKN043 OVC070 08/08 A3012 RMK AO2 RAB33 SLP210 P0000 T00780078 401060000
KPIT 150551Z 06004KT 5SM -RA BR BKN006 OVC034 08/08 A3011 RMK AO2 SLP206 P0001 60001 T00780078 10083 20072 58010
KPIT 150651Z 03009KT 4SM -RA BR SCT006 OVC024 07/07 A3007 RMK AO2 SLP193 P0001 T00720072
KPIT 150751Z 06004KT 4SM -RA BR SCT005 OVC026 07/07 A3009 RMK AO2 SLP199 P0001 T00720072
KPIT 150851Z 00000KT 4SM BR BKN005 OVC020 07/07 A3008 RMK AO2 RAE51 SLP198 P0001 60003 T00720072 56008
KPIT 150951Z 06003KT 3SM -RA BR SCT004 OVC016 07/07 A3006 RMK AO2 RAB11 SLP191 SCT V BKN P0002 T00720072



Page loaded:  10:57 UTC  |   02:57 AM Pacific  |   03:57 AM Mountain  |   04:57 AM Central  |   05:57 AM Eastern

 

ADVISORIES

FORECASTS

FORECASTS

OBSERVATIONS

USER TOOLS

ABOUT US